Time,TemperatureF,DewpointF,PressureIn,WindDirection,WindDirectionDegrees,WindSpeedMPH,WindSpeedGustMPH,Humidity,HourlyPrecipIn,Conditions,Clouds,dailyrainin,SoftwareType,DateUTC
2013-12-08 00:02:00,33.5,29.5,30.05,NNE,23,0.0,0.0,85,0.00,,---,0.29,VWS V14.01,2013-12-08 08:02:00,
2013-12-08 00:12:00,33.2,29.5,30.05,NNE,23,0.0,0.0,86,0.00,,---,0.00,VWS V14.01,2013-12-08 08:12:00,
2013-12-08 00:17:00,33.4,29.7,30.04,NNE,23,0.0,0.0,86,0.00,,---,0.00,VWS V14.01,2013-12-08 08:17:00,
2013-12-08 00:22:00,33.4,29.7,30.04,NNE,23,0.0,0.0,86,0.00,,---,0.00,VWS V14.01,2013-12-08 08:22:00,
2013-12-08 00:32:00,33.2,29.5,30.04,NNE,23,0.0,0.0,86,0.00,,---,0.00,VWS V14.01,2013-12-08 08:32:00,
2013-12-08 00:37:00,33.2,29.5,30.04,NNE,23,0.0,0.0,86,0.00,,---,0.00,VWS V14.01,2013-12-08 08:37:00,
2013-12-08 00:47:00,32.9,29.2,30.04,NNE,23,0.0,0.0,86,0.00,,---,0.00,VWS V14.01,2013-12-08 08:47:00,
2013-12-08 00:52:00,32.9,29.2,30.04,NNE,23,0.0,0.0,86,0.00,,---,0.00,VWS V14.01,2013-12-08 08:52:00,
2013-12-08 01:02:00,32.7,29.0,30.05,NNE,23,0.0,0.0,86,0.00,,---,0.00,VWS V14.01,2013-12-08 09:02:00,
2013-12-08 01:12:00,32.4,28.7,30.05,NNE,23,0.0,0.0,86,0.00,,---,0.00,VWS V14.01,2013-12-08 09:12:00,
2013-12-08 01:17:00,32.4,28.7,30.05,NNE,23,0.0,0.0,86,0.00,,---,0.00,VWS V14.01,2013-12-08 09:17:00,
2013-12-08 01:22:00,32.2,28.5,30.05,NNE,23,0.0,0.0,86,0.00,,---,0.00,VWS V14.01,2013-12-08 09:22:00,
2013-12-08 01:27:00,32.1,28.4,30.05,NNE,23,0.0,0.0,86,0.00,,---,0.00,VWS V14.01,2013-12-08 09:27:00,
2013-12-08 01:32:00,31.9,28.5,30.04,NNE,23,0.0,0.0,87,0.00,,---,0.00,VWS V14.01,2013-12-08 09:32:00,
2013-12-08 01:37:00,31.9,28.5,30.04,NNE,23,0.0,0.0,87,0.00,,---,0.00,VWS V14.01,2013-12-08 09:37:00,
2013-12-08 01:47:00,31.8,28.4,30.04,NNE,23,0.0,0.0,87,0.00,,---,0.00,VWS V14.01,2013-12-08 09:47:00,
2013-12-08 01:52:00,31.6,28.2,30.04,NNE,23,0.0,0.0,87,0.00,,---,0.00,VWS V14.01,2013-12-08 09:52:00,
2013-12-08 02:02:00,31.6,28.2,30.05,NNE,23,0.0,0.0,87,0.00,,---,0.00,VWS V14.01,2013-12-08 10:02:00,
2013-12-08 02:07:00,31.8,28.4,30.05,NNE,23,0.0,0.0,87,0.00,,---,0.00,VWS V14.01,2013-12-08 10:07:00,
2013-12-08 02:12:00,31.8,28.4,30.05,NNE,23,0.0,0.0,87,0.00,,---,0.00,VWS V14.01,2013-12-08 10:12:00,
2013-12-08 02:17:00,31.8,28.4,30.07,NNE,23,0.0,0.0,87,0.00,,---,0.00,VWS V14.01,2013-12-08 10:17:00,
2013-12-08 02:22:00,31.6,28.2,30.07,NNE,23,0.0,0.0,87,0.00,,---,0.00,VWS V14.01,2013-12-08 10:22:00,
2013-12-08 02:32:00,31.5,28.1,30.05,NNE,23,0.0,0.0,87,0.00,,---,0.00,VWS V14.01,2013-12-08 10:32:00,
2013-12-08 02:37:00,31.5,28.4,30.05,NNE,23,0.0,0.0,88,0.00,,---,0.00,VWS V14.01,2013-12-08 10:37:00,
2013-12-08 02:42:00,31.3,28.2,30.05,NNE,23,0.0,0.0,88,0.00,,---,0.00,VWS V14.01,2013-12-08 10:42:00,
2013-12-08 02:47:00,31.3,28.2,30.05,NNE,23,0.0,0.0,88,0.00,,---,0.00,VWS V14.01,2013-12-08 10:47:00,
2013-12-08 02:57:00,31.2,28.1,30.05,NNE,23,0.0,0.0,88,0.00,,---,0.00,VWS V14.01,2013-12-08 10:57:00,
2013-12-08 03:07:00,31.0,27.9,30.05,NNE,23,0.0,0.0,88,0.00,,---,0.00,VWS V14.01,2013-12-08 11:07:00,
2013-12-08 03:12:00,31.0,27.9,30.05,NNE,23,0.0,0.0,88,0.00,,---,0.00,VWS V14.01,2013-12-08 11:12:00,
2013-12-08 03:17:00,30.9,27.8,30.06,NNE,23,0.0,0.0,88,0.00,,---,0.00,VWS V14.01,2013-12-08 11:17:00,
2013-12-08 03:27:00,30.7,27.6,30.06,NNE,23,0.0,0.0,88,0.00,,---,0.00,VWS V14.01,2013-12-08 11:27:00,
2013-12-08 03:37:00,30.6,27.5,30.07,NNE,23,0.0,0.0,88,0.00,,---,0.00,VWS V14.01,2013-12-08 11:37:00,
2013-12-08 03:47:00,30.4,27.3,30.06,NNE,23,0.0,0.0,88,0.00,,---,0.00,VWS V14.01,2013-12-08 11:47:00,
2013-12-08 03:52:00,30.3,27.2,30.06,NNE,23,0.0,0.0,88,0.00,,---,0.00,VWS V14.01,2013-12-08 11:52:00,
2013-12-08 03:57:00,30.3,27.5,30.06,NNE,23,0.0,0.0,89,0.00,,---,0.00,VWS V14.01,2013-12-08 11:57:00,
2013-12-08 04:07:00,30.3,27.5,30.05,NNE,23,0.0,0.0,89,0.00,,---,0.00,VWS V14.01,2013-12-08 12:07:00,
2013-12-08 04:12:00,30.3,27.5,30.05,NNE,23,0.0,0.0,89,0.00,,---,0.00,VWS V14.01,2013-12-08 12:12:00,
2013-12-08 04:17:00,30.3,27.5,30.04,NNE,23,0.0,0.0,89,0.00,,---,0.00,VWS V14.01,2013-12-08 12:17:00,
2013-12-08 04:22:00,30.4,27.5,30.04,NNE,23,0.0,0.0,89,0.00,,---,0.00,VWS V14.01,2013-12-08 12:22:00,
2013-12-08 04:27:00,30.6,27.8,30.04,NNE,23,0.0,0.0,89,0.00,,---,0.00,VWS V14.01,2013-12-08 12:27:00,
2013-12-08 04:32:00,30.6,27.8,30.05,NNE,23,0.0,0.0,89,0.00,,---,0.00,VWS V14.01,2013-12-08 12:32:00,
2013-12-08 04:37:00,30.6,27.8,30.05,NNE,23,0.0,0.0,89,0.00,,---,0.00,VWS V14.01,2013-12-08 12:37:00,
2013-12-08 04:42:00,30.6,27.8,30.05,NNE,23,0.0,0.0,89,0.00,,---,0.00,VWS V14.01,2013-12-08 12:42:00,
2013-12-08 04:52:00,30.3,27.5,30.06,NNE,23,0.0,0.0,89,0.00,,---,0.00,VWS V14.01,2013-12-08 12:52:00,
2013-12-08 04:57:00,30.3,27.5,30.06,NNE,23,0.0,0.0,89,0.00,,---,0.00,VWS V14.01,2013-12-08 12:57:00,
2013-12-08 05:02:00,30.3,27.5,30.06,NNE,23,0.0,0.0,89,0.00,,---,0.00,VWS V14.01,2013-12-08 13:02:00,
2013-12-08 05:07:00,30.3,27.5,30.06,NNE,23,0.0,0.0,89,0.00,,---,0.00,VWS V14.01,2013-12-08 13:07:00,
2013-12-08 05:17:00,30.3,27.5,30.06,NNE,23,0.0,0.0,89,0.00,,---,0.00,VWS V14.01,2013-12-08 13:17:00,
2013-12-08 05:22:00,30.1,27.3,30.06,NNE,23,0.0,0.0,89,0.00,,---,0.00,VWS V14.01,2013-12-08 13:22:00,
2013-12-08 05:27:00,30.1,27.3,30.06,NNE,23,0.0,0.0,89,0.00,,---,0.00,VWS V14.01,2013-12-08 13:27:00,
2013-12-08 05:32:00,30.1,27.3,30.06,NNE,23,0.0,0.0,89,0.00,,---,0.00,VWS V14.01,2013-12-08 13:32:00,
2013-12-08 05:37:00,30.1,27.3,30.06,NNE,23,0.0,0.0,89,0.00,,---,0.00,VWS V14.01,2013-12-08 13:37:00,
2013-12-08 05:42:00,30.1,27.3,30.06,NNE,23,0.0,0.0,89,0.00,,---,0.00,VWS V14.01,2013-12-08 13:42:00,
2013-12-08 05:52:00,30.0,27.2,30.07,NNE,23,0.0,0.0,89,0.00,,---,0.00,VWS V14.01,2013-12-08 13:52:00,
2013-12-08 05:57:00,29.8,27.2,30.07,NNE,23,0.0,0.0,90,0.00,,---,0.00,VWS V14.01,2013-12-08 13:57:00,
2013-12-08 06:02:00,29.8,27.2,30.07,NNE,23,0.0,0.0,90,0.00,,---,0.00,VWS V14.01,2013-12-08 14:02:00,
2013-12-08 06:07:00,29.8,27.2,30.07,NNE,23,0.0,0.0,90,0.00,,---,0.00,VWS V14.01,2013-12-08 14:07:00,
2013-12-08 06:12:00,29.7,27.1,30.07,NNE,23,0.0,0.0,90,0.00,,---,0.00,VWS V14.01,2013-12-08 14:12:00,
2013-12-08 06:22:00,29.8,27.2,30.08,NNE,23,0.0,0.0,90,0.00,,---,0.00,VWS V14.01,2013-12-08 14:22:00,
2013-12-08 06:27:00,29.7,27.1,30.08,NNE,23,0.0,0.0,90,0.00,,---,0.00,VWS V14.01,2013-12-08 14:27:00,
2013-12-08 06:32:00,29.7,27.1,30.08,NNE,23,0.0,0.0,90,0.00,,---,0.00,VWS V14.01,2013-12-08 14:32:00,
2013-12-08 06:42:00,29.7,27.1,30.08,NNE,23,0.0,0.0,90,0.00,,---,0.00,VWS V14.01,2013-12-08 14:42:00,
2013-12-08 06:52:00,29.5,26.9,30.08,NNE,23,0.0,0.0,90,0.00,,---,0.00,VWS V14.01,2013-12-08 14:52:00,
2013-12-08 07:02:00,29.5,26.9,30.09,NNE,23,0.0,0.0,90,0.00,,---,0.00,VWS V14.01,2013-12-08 15:02:00,
2013-12-08 07:07:00,29.5,26.9,30.09,NNE,27,0.0,0.0,90,0.00,,---,0.00,VWS V14.01,2013-12-08 15:07:00,
2013-12-08 07:12:00,29.5,26.9,30.09,NNE,27,0.0,0.0,90,0.00,,---,0.00,VWS V14.01,2013-12-08 15:12:00,
2013-12-08 07:17:00,29.5,26.9,30.10,NNE,27,0.0,0.0,90,0.00,,---,0.00,VWS V14.01,2013-12-08 15:17:00,
2013-12-08 07:22:00,29.7,27.1,30.10,NNE,27,0.0,0.0,90,0.00,,---,0.00,VWS V14.01,2013-12-08 15:22:00,
2013-12-08 07:32:00,30.1,27.8,30.10,NNE,27,0.0,0.0,91,0.00,,---,0.00,VWS V14.01,2013-12-08 15:32:00,
2013-12-08 07:37:00,30.3,28.0,30.10,NNE,27,0.0,0.0,91,0.00,,---,0.00,VWS V14.01,2013-12-08 15:37:00,
2013-12-08 07:42:00,30.6,28.3,30.10,NNE,27,0.0,0.0,91,0.00,,---,0.00,VWS V14.01,2013-12-08 15:42:00,
2013-12-08 07:47:00,30.7,28.4,30.11,NNE,27,0.0,0.0,91,0.00,,---,0.00,VWS V14.01,2013-12-08 15:47:00,
2013-12-08 07:52:00,31.3,29.0,30.11,NNE,27,0.0,0.0,91,0.00,,---,0.00,VWS V14.01,2013-12-08 15:52:00,
2013-12-08 08:02:00,33.8,31.5,30.09,NNE,27,0.0,0.0,91,0.00,,---,0.00,VWS V14.01,2013-12-08 16:02:00,
2013-12-08 08:07:00,34.6,32.0,30.09,NNE,27,0.0,0.0,90,0.00,,---,0.00,VWS V14.01,2013-12-08 16:07:00,
2013-12-08 08:17:00,35.8,32.3,30.10,NNE,27,0.0,0.0,87,0.00,,---,0.00,VWS V14.01,2013-12-08 16:17:00,
2013-12-08 08:27:00,36.8,32.7,30.10,NNE,27,0.0,0.0,85,0.00,,---,0.00,VWS V14.01,2013-12-08 16:27:00,
2013-12-08 08:32:00,37.9,32.9,30.11,NNE,27,0.0,0.0,82,0.00,,---,0.00,VWS V14.01,2013-12-08 16:32:00,
2013-12-08 08:42:00,39.9,32.6,30.11,NNE,27,0.0,0.0,75,0.00,,---,0.00,VWS V14.01,2013-12-08 16:42:00,
2013-12-08 08:52:00,41.6,30.3,30.12,NNE,27,0.0,0.0,64,0.00,,---,0.00,VWS V14.01,2013-12-08 16:52:00,
2013-12-08 09:02:00,42.6,30.5,30.12,NNE,27,0.0,0.0,62,0.00,,---,0.00,VWS V14.01,2013-12-08 17:02:00,
2013-12-08 09:12:00,42.9,28.7,30.12,NNE,27,0.0,0.0,57,0.00,,---,0.00,VWS V14.01,2013-12-08 17:12:00,
2013-12-08 09:22:00,44.1,28.5,30.12,NNE,27,0.0,0.0,54,0.00,,---,0.00,VWS V14.01,2013-12-08 17:22:00,
2013-12-08 09:27:00,44.6,28.5,30.12,NNE,27,0.0,0.0,53,0.00,,---,0.00,VWS V14.01,2013-12-08 17:27:00,
2013-12-08 09:32:00,45.2,28.2,30.12,NNE,27,0.0,0.0,51,0.00,,---,0.00,VWS V14.01,2013-12-08 17:32:00,
2013-12-08 09:37:00,45.7,29.1,30.12,NE,40,0.0,0.0,52,0.00,,---,0.00,VWS V14.01,2013-12-08 17:37:00,
2013-12-08 09:42:00,46.0,28.9,30.12,SE,124,0.0,0.0,51,0.00,,---,0.00,VWS V14.01,2013-12-08 17:42:00,
2013-12-08 09:47:00,46.0,27.9,30.12,SE,124,0.0,0.0,49,0.00,,---,0.00,VWS V14.01,2013-12-08 17:47:00,
2013-12-08 09:52:00,46.0,28.4,30.12,SE,124,0.0,0.0,50,0.00,,---,0.00,VWS V14.01,2013-12-08 17:52:00,
2013-12-08 10:02:00,46.2,27.6,30.12,SE,130,0.0,0.0,48,0.00,,---,0.00,VWS V14.01,2013-12-08 18:02:00,
2013-12-08 10:07:00,46.4,27.8,30.12,SE,130,0.0,0.0,48,0.00,,---,0.00,VWS V14.01,2013-12-08 18:07:00,
2013-12-08 10:12:00,47.0,29.3,30.12,SE,130,0.0,0.0,50,0.00,,---,0.00,VWS V14.01,2013-12-08 18:12:00,
2013-12-08 10:22:00,46.8,29.2,30.12,SE,130,0.0,0.0,50,0.00,,---,0.00,VWS V14.01,2013-12-08 18:22:00,
2013-12-08 10:27:00,46.8,27.6,30.12,SE,130,0.0,0.0,47,0.00,,---,0.00,VWS V14.01,2013-12-08 18:27:00,
2013-12-08 10:32:00,47.1,27.9,30.11,SE,130,0.0,0.0,47,0.00,,---,0.00,VWS V14.01,2013-12-08 18:32:00,
2013-12-08 10:37:00,48.0,29.8,30.11,SE,130,0.0,0.0,49,0.00,,---,0.00,VWS V14.01,2013-12-08 18:37:00,
2013-12-08 10:47:00,48.0,28.2,30.10,West,264,0.0,0.0,46,0.00,,---,0.00,VWS V14.01,2013-12-08 18:47:00,
2013-12-08 10:52:00,48.2,28.9,30.10,West,264,0.0,0.0,47,0.00,,---,0.00,VWS V14.01,2013-12-08 18:52:00,
2013-12-08 11:02:00,48.9,28.5,30.10,West,261,0.0,0.0,45,0.00,,---,0.00,VWS V14.01,2013-12-08 19:02:00,
2013-12-08 11:07:00,49.1,29.2,30.10,West,261,0.0,0.0,46,0.00,,---,0.00,VWS V14.01,2013-12-08 19:07:00,
2013-12-08 11:17:00,49.5,29.6,30.09,SE,136,0.0,0.0,46,0.00,,---,0.00,VWS V14.01,2013-12-08 19:17:00,
2013-12-08 11:22:00,49.9,30.0,30.09,SSE,151,0.0,0.0,46,0.00,,---,0.00,VWS V14.01,2013-12-08 19:22:00,
2013-12-08 11:27:00,49.6,28.0,30.09,WNW,289,0.0,0.0,43,0.00,,---,0.00,VWS V14.01,2013-12-08 19:27:00,
2013-12-08 11:32:00,49.9,28.9,30.09,WNW,292,0.0,0.0,44,0.00,,---,0.00,VWS V14.01,2013-12-08 19:32:00,
2013-12-08 11:37:00,51.1,29.4,30.09,SSE,155,0.0,0.0,43,0.00,,---,0.00,VWS V14.01,2013-12-08 19:37:00,
2013-12-08 11:42:00,51.3,29.0,30.09,South,178,0.0,0.0,42,0.00,,---,0.00,VWS V14.01,2013-12-08 19:42:00,
2013-12-08 11:47:00,52.0,28.5,30.07,ESE,110,0.0,0.0,40,0.00,,---,0.00,VWS V14.01,2013-12-08 19:47:00,
2013-12-08 11:57:00,53.2,28.3,30.07,SSE,151,0.0,0.0,38,0.00,,---,0.00,VWS V14.01,2013-12-08 19:57:00,
2013-12-08 12:07:00,53.3,29.6,30.07,SSE,165,0.0,0.0,40,0.00,,---,0.00,VWS V14.01,2013-12-08 20:07:00,
2013-12-08 12:17:00,53.9,28.2,30.05,SSE,147,0.0,0.0,37,0.00,,---,0.00,VWS V14.01,2013-12-08 20:17:00,
2013-12-08 12:22:00,54.5,26.7,30.05,SE,133,0.0,0.0,34,0.00,,---,0.00,VWS V14.01,2013-12-08 20:22:00,
2013-12-08 12:32:00,55.0,27.9,30.05,SSE,150,0.0,0.0,35,0.00,,---,0.00,VWS V14.01,2013-12-08 20:32:00,
2013-12-08 12:37:00,55.1,25.8,30.05,SSE,160,0.0,0.0,32,0.00,,---,0.00,VWS V14.01,2013-12-08 20:37:00,
2013-12-08 12:42:00,54.8,25.5,30.05,SSE,161,0.0,0.0,32,0.00,,---,0.00,VWS V14.01,2013-12-08 20:42:00,
2013-12-08 12:52:00,54.8,27.0,30.04,SE,124,0.0,0.0,34,0.00,,---,0.00,VWS V14.01,2013-12-08 20:52:00,
2013-12-08 12:57:00,55.4,28.9,30.04,South,179,0.0,0.0,36,0.00,,---,0.00,VWS V14.01,2013-12-08 20:57:00,
2013-12-08 13:07:00,55.6,29.1,30.04,South,178,0.0,0.0,36,0.00,,---,0.00,VWS V14.01,2013-12-08 21:07:00,
2013-12-08 13:12:00,55.9,29.4,30.04,South,189,0.0,0.0,36,0.00,,---,0.00,VWS V14.01,2013-12-08 21:12:00,
2013-12-08 13:17:00,55.1,29.3,30.03,SW,216,0.0,0.0,37,0.00,,---,0.00,VWS V14.01,2013-12-08 21:17:00,
2013-12-08 13:22:00,55.6,30.4,30.03,SW,215,0.0,0.0,38,0.00,,---,0.00,VWS V14.01,2013-12-08 21:22:00,
2013-12-08 13:32:00,55.7,29.9,30.03,SSW,195,0.0,0.0,37,0.00,,---,0.00,VWS V14.01,2013-12-08 21:32:00,
2013-12-08 13:37:00,55.7,31.8,30.03,WNW,291,0.0,0.0,40,0.00,,---,0.00,VWS V14.01,2013-12-08 21:37:00,
2013-12-08 13:42:00,55.9,31.3,30.03,SSE,152,0.0,0.0,39,0.00,,---,0.00,VWS V14.01,2013-12-08 21:42:00,
2013-12-08 13:47:00,55.9,30.7,30.02,SSE,154,0.0,0.0,38,0.00,,---,0.00,VWS V14.01,2013-12-08 21:47:00,
2013-12-08 13:52:00,55.9,31.3,30.02,SSE,154,0.0,0.0,39,0.00,,---,0.00,VWS V14.01,2013-12-08 21:52:00,
2013-12-08 13:57:00,56.0,31.4,30.02,WSW,241,0.0,0.0,39,0.00,,---,0.00,VWS V14.01,2013-12-08 21:57:00,
2013-12-08 14:02:00,55.3,31.4,30.02,WSW,256,0.0,0.0,40,0.00,,---,0.00,VWS V14.01,2013-12-08 22:02:00,
2013-12-08 14:12:00,55.4,30.9,30.02,West,278,0.0,0.0,39,0.00,,---,0.00,VWS V14.01,2013-12-08 22:12:00,
2013-12-08 14:22:00,54.4,30.0,30.02,West,278,0.0,0.0,39,0.00,,---,0.00,VWS V14.01,2013-12-08 22:22:00,
2013-12-08 14:27:00,54.2,30.4,30.02,West,278,0.0,0.0,40,0.00,,---,0.00,VWS V14.01,2013-12-08 22:27:00,
2013-12-08 14:32:00,54.4,30.6,30.02,West,278,0.0,0.0,40,0.00,,---,0.00,VWS V14.01,2013-12-08 22:32:00,
2013-12-08 14:42:00,54.8,31.0,30.02,West,278,0.0,0.0,40,0.00,,---,0.00,VWS V14.01,2013-12-08 22:42:00,
2013-12-08 14:47:00,55.1,32.4,30.02,West,271,0.0,0.0,42,0.00,,---,0.00,VWS V14.01,2013-12-08 22:47:00,
2013-12-08 14:57:00,54.7,30.9,30.02,West,268,0.0,0.0,40,0.00,,---,0.00,VWS V14.01,2013-12-08 22:57:00,
2013-12-08 15:02:00,54.4,32.4,30.02,West,268,0.0,0.0,43,0.00,,---,0.00,VWS V14.01,2013-12-08 23:02:00,
2013-12-08 15:07:00,54.1,30.9,30.02,West,268,0.0,0.0,41,0.00,,---,0.00,VWS V14.01,2013-12-08 23:07:00,
2013-12-08 15:12:00,53.8,31.9,30.02,West,268,0.0,0.0,43,0.00,,---,0.00,VWS V14.01,2013-12-08 23:12:00,
2013-12-08 15:17:00,53.5,33.2,30.02,West,268,0.0,0.0,46,0.00,,---,0.00,VWS V14.01,2013-12-08 23:17:00,
2013-12-08 15:22:00,53.3,32.5,30.02,West,268,0.0,0.0,45,0.00,,---,0.00,VWS V14.01,2013-12-08 23:22:00,
2013-12-08 15:27:00,53.2,34.0,30.02,West,268,0.0,0.0,48,0.00,,---,0.00,VWS V14.01,2013-12-08 23:27:00,
2013-12-08 15:37:00,52.3,34.7,30.02,West,268,0.0,0.0,51,0.00,,---,0.00,VWS V14.01,2013-12-08 23:37:00,
2013-12-08 15:47:00,52.0,37.2,30.02,West,268,0.0,0.0,57,0.00,,---,0.00,VWS V14.01,2013-12-08 23:47:00,
2013-12-08 15:52:00,51.7,37.8,30.02,West,268,0.0,0.0,59,0.00,,---,0.00,VWS V14.01,2013-12-08 23:52:00,
2013-12-08 15:57:00,51.4,38.0,30.02,West,268,0.0,0.0,60,0.00,,---,0.00,VWS V14.01,2013-12-08 23:57:00,
2013-12-08 16:02:00,50.8,37.8,30.02,West,268,0.0,0.0,61,0.00,,---,0.00,VWS V14.01,2013-12-09 00:02:00,
2013-12-08 16:07:00,50.5,38.0,30.02,West,268,0.0,0.0,62,0.00,,---,0.00,VWS V14.01,2013-12-09 00:07:00,
2013-12-08 16:12:00,50.5,38.4,30.02,West,268,0.0,0.0,63,0.00,,---,0.00,VWS V14.01,2013-12-09 00:12:00,
2013-12-08 16:22:00,50.4,38.3,30.02,West,268,0.0,0.0,63,0.00,,---,0.00,VWS V14.01,2013-12-09 00:22:00,
2013-12-08 16:32:00,49.9,38.2,30.02,West,268,0.0,0.0,64,0.00,,---,0.00,VWS V14.01,2013-12-09 00:32:00,
2013-12-08 16:42:00,49.1,37.1,30.02,West,271,0.0,0.0,63,0.00,,---,0.00,VWS V14.01,2013-12-09 00:42:00,
2013-12-08 16:52:00,48.2,36.6,30.03,West,271,0.0,0.0,64,0.00,,---,0.00,VWS V14.01,2013-12-09 00:52:00,
2013-12-08 16:57:00,47.7,36.1,30.03,West,271,0.0,0.0,64,0.00,,---,0.00,VWS V14.01,2013-12-09 00:57:00,
2013-12-08 17:02:00,47.4,35.8,30.04,West,271,0.0,0.0,64,0.00,,---,0.00,VWS V14.01,2013-12-09 01:02:00,
2013-12-08 17:07:00,47.0,35.5,30.04,West,271,0.0,0.0,64,0.00,,---,0.00,VWS V14.01,2013-12-09 01:07:00,
2013-12-08 17:12:00,46.7,35.6,30.04,West,271,0.0,0.0,65,0.00,,---,0.00,VWS V14.01,2013-12-09 01:12:00,
2013-12-08 17:17:00,46.4,35.3,30.04,West,271,0.0,0.0,65,0.00,,---,0.00,VWS V14.01,2013-12-09 01:17:00,
2013-12-08 17:27:00,45.8,35.8,30.04,West,271,0.0,0.0,68,0.00,,---,0.00,VWS V14.01,2013-12-09 01:27:00,
2013-12-08 17:32:00,45.5,35.6,30.05,West,271,0.0,0.0,68,0.00,,---,0.00,VWS V14.01,2013-12-09 01:32:00,
2013-12-08 17:37:00,45.2,35.7,30.05,West,271,0.0,0.0,69,0.00,,---,0.00,VWS V14.01,2013-12-09 01:37:00,
2013-12-08 17:42:00,45.1,35.5,30.05,West,271,0.0,0.0,69,0.00,,---,0.00,VWS V14.01,2013-12-09 01:42:00,
2013-12-08 17:47:00,44.8,35.6,30.05,West,271,0.0,0.0,70,0.00,,---,0.00,VWS V14.01,2013-12-09 01:47:00,
2013-12-08 17:52:00,44.6,35.4,30.05,West,271,0.0,0.0,70,0.00,,---,0.00,VWS V14.01,2013-12-09 01:52:00,
2013-12-08 17:57:00,44.3,35.2,30.05,West,271,0.0,0.0,70,0.00,,---,0.00,VWS V14.01,2013-12-09 01:57:00,
2013-12-08 18:02:00,44.1,35.3,30.06,West,271,0.0,0.0,71,0.00,,---,0.00,VWS V14.01,2013-12-09 02:02:00,
2013-12-08 18:12:00,43.5,34.7,30.06,West,271,0.0,0.0,71,0.00,,---,0.00,VWS V14.01,2013-12-09 02:12:00,
2013-12-08 18:17:00,43.2,34.8,30.06,West,271,0.0,0.0,72,0.00,,---,0.00,VWS V14.01,2013-12-09 02:17:00,
2013-12-08 18:22:00,42.9,34.5,30.06,West,271,0.0,0.0,72,0.00,,---,0.00,VWS V14.01,2013-12-09 02:22:00,
2013-12-08 18:32:00,42.3,33.9,30.06,West,271,0.0,0.0,72,0.00,,---,0.00,VWS V14.01,2013-12-09 02:32:00,
2013-12-08 18:37:00,42.1,33.7,30.06,West,271,0.0,0.0,72,0.00,,---,0.00,VWS V14.01,2013-12-09 02:37:00,
2013-12-08 18:47:00,41.5,33.5,30.07,West,271,0.0,0.0,73,0.00,,---,0.00,VWS V14.01,2013-12-09 02:47:00,
2013-12-08 18:52:00,41.2,33.2,30.07,West,271,0.0,0.0,73,0.00,,---,0.00,VWS V14.01,2013-12-09 02:52:00,
2013-12-08 18:57:00,40.9,32.9,30.07,West,271,0.0,0.0,73,0.00,,---,0.00,VWS V14.01,2013-12-09 02:57:00,
2013-12-08 19:07:00,40.5,32.9,30.07,West,271,0.0,0.0,74,0.00,,---,0.00,VWS V14.01,2013-12-09 03:07:00,
2013-12-08 19:17:00,39.9,32.3,30.07,West,271,0.0,0.0,74,0.00,,---,0.00,VWS V14.01,2013-12-09 03:17:00,
2013-12-08 19:22:00,39.8,32.2,30.07,West,271,0.0,0.0,74,0.00,,---,0.00,VWS V14.01,2013-12-09 03:22:00,
2013-12-08 19:32:00,39.3,32.0,30.08,West,271,0.0,0.0,75,0.00,,---,0.00,VWS V14.01,2013-12-09 03:32:00,
2013-12-08 19:37:00,39.1,31.9,30.08,West,271,0.0,0.0,75,0.00,,---,0.00,VWS V14.01,2013-12-09 03:37:00,
2013-12-08 19:47:00,38.6,31.4,30.08,West,271,0.0,0.0,75,0.00,,---,0.00,VWS V14.01,2013-12-09 03:47:00,
2013-12-08 19:57:00,38.2,31.0,30.08,West,271,0.0,0.0,75,0.00,,---,0.00,VWS V14.01,2013-12-09 03:57:00,
2013-12-08 20:02:00,38.0,30.8,30.09,West,271,0.0,0.0,75,0.00,,---,0.00,VWS V14.01,2013-12-09 04:02:00,
2013-12-08 20:07:00,37.8,30.6,30.09,West,271,0.0,0.0,75,0.00,,---,0.00,VWS V14.01,2013-12-09 04:07:00,
2013-12-08 20:17:00,37.5,30.6,30.09,West,271,0.0,0.0,76,0.00,,---,0.00,VWS V14.01,2013-12-09 04:17:00,
2013-12-08 20:22:00,37.3,30.4,30.09,West,271,0.0,0.0,76,0.00,,---,0.00,VWS V14.01,2013-12-09 04:22:00,
2013-12-08 20:27:00,37.0,30.1,30.09,West,271,0.0,0.0,76,0.00,,---,0.00,VWS V14.01,2013-12-09 04:27:00,
2013-12-08 20:32:00,36.9,30.4,30.10,West,271,0.0,0.0,77,0.00,,---,0.00,VWS V14.01,2013-12-09 04:32:00,
2013-12-08 20:37:00,36.8,30.3,30.10,West,271,0.0,0.0,77,0.00,,---,0.00,VWS V14.01,2013-12-09 04:37:00,
2013-12-08 20:42:00,36.6,30.1,30.10,West,271,0.0,0.0,77,0.00,,---,0.00,VWS V14.01,2013-12-09 04:42:00,
2013-12-08 20:52:00,36.3,29.8,30.10,West,271,0.0,0.0,77,0.00,,---,0.00,VWS V14.01,2013-12-09 04:52:00,
2013-12-08 21:02:00,36.0,29.5,30.10,West,271,0.0,0.0,77,0.00,,---,0.00,VWS V14.01,2013-12-09 05:02:00,
2013-12-08 21:07:00,35.8,29.6,30.10,West,271,0.0,0.0,78,0.00,,---,0.00,VWS V14.01,2013-12-09 05:07:00,
2013-12-08 21:12:00,35.6,29.4,30.10,West,271,0.0,0.0,78,0.00,,---,0.00,VWS V14.01,2013-12-09 05:12:00,
2013-12-08 21:17:00,35.5,29.3,30.10,West,271,0.0,0.0,78,0.00,,---,0.00,VWS V14.01,2013-12-09 05:17:00,
2013-12-08 21:22:00,35.3,29.1,30.10,West,271,0.0,0.0,78,0.00,,---,0.00,VWS V14.01,2013-12-09 05:22:00,
2013-12-08 21:32:00,35.0,29.2,30.12,West,271,0.0,0.0,79,0.00,,---,0.00,VWS V14.01,2013-12-09 05:32:00,
2013-12-08 21:42:00,34.9,29.1,30.12,West,271,0.0,0.0,79,0.00,,---,0.00,VWS V14.01,2013-12-09 05:42:00,
2013-12-08 21:47:00,34.9,29.1,30.12,West,271,0.0,0.0,79,0.00,,---,0.00,VWS V14.01,2013-12-09 05:47:00,
2013-12-08 21:52:00,34.9,29.1,30.12,West,271,0.0,0.0,79,0.00,,---,0.00,VWS V14.01,2013-12-09 05:52:00,
2013-12-08 21:57:00,34.9,29.1,30.12,West,271,0.0,0.0,79,0.00,,---,0.00,VWS V14.01,2013-12-09 05:57:00,
2013-12-08 22:02:00,34.7,28.9,30.13,West,271,0.0,0.0,79,0.00,,---,0.00,VWS V14.01,2013-12-09 06:02:00,
2013-12-08 22:07:00,34.6,28.8,30.13,West,271,0.0,0.0,79,0.00,,---,0.00,VWS V14.01,2013-12-09 06:07:00,
2013-12-08 22:12:00,34.6,28.8,30.13,West,271,0.0,0.0,79,0.00,,---,0.00,VWS V14.01,2013-12-09 06:12:00,
2013-12-08 22:17:00,34.4,28.6,30.14,West,271,0.0,0.0,79,0.00,,---,0.00,VWS V14.01,2013-12-09 06:17:00,
2013-12-08 22:22:00,34.3,28.5,30.14,West,271,0.0,0.0,79,0.00,,---,0.00,VWS V14.01,2013-12-09 06:22:00,
2013-12-08 22:27:00,34.3,28.5,30.14,West,271,0.0,0.0,79,0.00,,---,0.00,VWS V14.01,2013-12-09 06:27:00,
2013-12-08 22:32:00,34.4,28.6,30.14,West,271,0.0,0.0,79,0.00,,---,0.00,VWS V14.01,2013-12-09 06:32:00,
2013-12-08 22:37:00,34.7,28.9,30.14,West,271,0.0,0.0,79,0.00,,---,0.00,VWS V14.01,2013-12-09 06:37:00,
2013-12-08 22:42:00,35.0,29.2,30.14,West,271,0.0,0.0,79,0.00,,---,0.00,VWS V14.01,2013-12-09 06:42:00,
2013-12-08 22:52:00,35.5,29.0,30.15,West,271,0.0,0.0,77,0.00,,---,0.00,VWS V14.01,2013-12-09 06:52:00,
2013-12-08 22:57:00,35.5,29.0,30.15,West,271,0.0,0.0,77,0.00,,---,0.00,VWS V14.01,2013-12-09 06:57:00,
2013-12-08 23:07:00,35.5,29.0,30.15,West,271,0.0,0.0,77,0.00,,---,0.00,VWS V14.01,2013-12-09 07:07:00,
2013-12-08 23:17:00,35.0,28.2,30.15,West,271,0.0,0.0,76,0.00,,---,0.00,VWS V14.01,2013-12-09 07:17:00,
2013-12-08 23:22:00,34.9,28.1,30.15,West,271,0.0,0.0,76,0.00,,---,0.00,VWS V14.01,2013-12-09 07:22:00,
2013-12-08 23:27:00,34.6,27.8,30.15,West,271,0.0,0.0,76,0.00,,---,0.00,VWS V14.01,2013-12-09 07:27:00,
2013-12-08 23:32:00,34.3,27.5,30.15,West,271,0.0,0.0,76,0.00,,---,0.00,VWS V14.01,2013-12-09 07:32:00,
2013-12-08 23:37:00,34.3,27.2,30.15,West,271,0.0,0.0,75,0.00,,---,0.00,VWS V14.01,2013-12-09 07:37:00,
2013-12-08 23:42:00,34.3,27.2,30.15,West,271,0.0,0.0,75,0.00,,---,0.00,VWS V14.01,2013-12-09 07:42:00,
2013-12-08 23:47:00,34.6,27.5,30.15,West,271,0.0,0.0,75,0.00,,---,0.00,VWS V14.01,2013-12-09 07:47:00,
2013-12-08 23:52:00,34.9,27.1,30.15,West,271,0.0,0.0,73,0.00,,---,0.00,VWS V14.01,2013-12-09 07:52:00,